createdAt,value
2019-03-17T00:00:49.314Z,7.30
2019-03-17T00:03:18.185Z,7.30
2019-03-17T00:05:46.969Z,7.30
2019-03-17T00:08:15.878Z,7.40
2019-03-17T00:10:44.662Z,7.30
2019-03-17T00:13:13.434Z,7.40
2019-03-17T00:15:42.382Z,7.40
2019-03-17T00:18:11.456Z,7.40
2019-03-17T00:20:40.222Z,7.50
2019-03-17T00:23:09.155Z,7.50
2019-03-17T00:25:37.941Z,7.50
2019-03-17T00:28:06.778Z,7.50
2019-03-17T00:30:35.625Z,7.50
2019-03-17T00:33:04.495Z,7.60
2019-03-17T00:35:33.257Z,7.50
2019-03-17T00:38:02.043Z,7.60
2019-03-17T00:40:30.887Z,7.50
2019-03-17T00:42:59.957Z,7.60
2019-03-17T00:45:28.816Z,7.60
2019-03-17T00:47:57.807Z,7.60
2019-03-17T00:50:26.586Z,7.60
2019-03-17T00:52:55.437Z,7.60
2019-03-17T00:55:24.210Z,7.60
2019-03-17T00:57:53.303Z,7.70
2019-03-17T01:00:22.074Z,7.60
2019-03-17T01:02:50.955Z,7.70
2019-03-17T01:05:19.720Z,7.70
2019-03-17T01:07:48.503Z,7.70
2019-03-17T01:10:17.276Z,7.70
2019-03-17T01:12:46.142Z,7.70
2019-03-17T01:15:15.166Z,7.60
2019-03-17T01:17:44.019Z,7.70
2019-03-17T01:20:13.221Z,7.70
2019-03-17T01:22:42.405Z,7.70
2019-03-17T01:25:11.192Z,7.60
2019-03-17T01:27:40.050Z,7.70
2019-03-17T01:30:09.276Z,7.60
2019-03-17T01:32:38.196Z,7.60
2019-03-17T01:35:09.614Z,7.60
2019-03-17T01:37:38.050Z,7.50
2019-03-17T01:40:07.299Z,7.60
2019-03-17T01:42:36.086Z,7.60
2019-03-17T01:45:05.370Z,7.50
2019-03-17T01:47:34.147Z,7.50
2019-03-17T01:50:02.995Z,7.50
2019-03-17T01:52:31.762Z,7.50
2019-03-17T01:55:00.839Z,7.50
2019-03-17T01:57:29.619Z,7.50
2019-03-17T01:59:58.402Z,7.50
2019-03-17T02:02:27.323Z,7.50
2019-03-17T02:04:56.104Z,7.40
2019-03-17T02:07:24.874Z,7.40
2019-03-17T02:09:53.667Z,7.40
2019-03-17T02:12:22.762Z,7.40
2019-03-17T02:14:51.852Z,7.40
2019-03-17T02:17:20.635Z,7.40
2019-03-17T02:19:49.740Z,7.50
2019-03-17T02:22:18.530Z,7.50
2019-03-17T02:24:47.381Z,7.50
2019-03-17T02:27:16.234Z,7.50
2019-03-17T02:29:45.014Z,7.40
2019-03-17T02:32:13.790Z,7.40
2019-03-17T02:34:42.651Z,7.40
2019-03-17T02:37:11.467Z,7.40
2019-03-17T02:39:40.258Z,7.30
2019-03-17T02:42:09.042Z,7.30
2019-03-17T02:44:37.819Z,7.20
2019-03-17T02:47:06.606Z,7.20
2019-03-17T02:49:35.386Z,7.10
2019-03-17T02:52:04.230Z,7.10
2019-03-17T02:54:33.014Z,7.00
2019-03-17T02:57:01.948Z,7.00
2019-03-17T02:59:30.717Z,6.80
2019-03-17T03:01:59.590Z,6.80
2019-03-17T03:04:28.642Z,6.60
2019-03-17T03:06:57.407Z,6.60
2019-03-17T03:09:26.250Z,6.60
2019-03-17T03:11:55.021Z,6.50
2019-03-17T03:14:24.058Z,6.50
2019-03-17T03:16:52.876Z,6.40
2019-03-17T03:19:22.070Z,6.40
2019-03-17T03:21:50.843Z,6.30
2019-03-17T03:24:19.618Z,6.20
2019-03-17T03:26:48.404Z,6.10
2019-03-17T03:29:17.182Z,6.10
2019-03-17T03:31:45.967Z,6.10
2019-03-17T03:34:14.765Z,6.10
2019-03-17T03:36:43.540Z,6.10
2019-03-17T03:39:12.393Z,6.00
2019-03-17T03:41:41.199Z,6.00
2019-03-17T03:44:10.072Z,6.00
2019-03-17T03:46:38.931Z,6.00
2019-03-17T03:49:07.771Z,6.00
2019-03-17T03:51:36.562Z,6.10
2019-03-17T03:54:05.417Z,6.20
2019-03-17T03:56:34.216Z,6.30
2019-03-17T03:59:03.307Z,6.40
2019-03-17T04:01:32.160Z,6.50
2019-03-17T04:04:00.938Z,6.70
2019-03-17T04:06:29.797Z,6.70
2019-03-17T04:08:59.371Z,6.90
2019-03-17T04:11:28.146Z,7.00
2019-03-17T04:13:56.991Z,7.10
2019-03-17T04:16:25.851Z,7.10
2019-03-17T04:18:54.763Z,7.20
2019-03-17T04:21:23.543Z,7.20
2019-03-17T04:23:52.499Z,7.20
2019-03-17T04:26:21.479Z,7.20
2019-03-17T04:28:50.355Z,7.20
2019-03-17T04:31:19.147Z,7.00
2019-03-17T04:33:48.188Z,6.90
2019-03-17T04:36:17.156Z,6.70
2019-03-17T04:38:46.028Z,6.60
2019-03-17T04:41:15.368Z,6.50
2019-03-17T04:43:44.379Z,6.40
2019-03-17T04:46:13.302Z,6.30
2019-03-17T04:48:42.347Z,6.20
2019-03-17T04:51:11.479Z,6.20
2019-03-17T04:53:40.291Z,6.10
2019-03-17T04:56:09.227Z,6.00
2019-03-17T04:58:38.143Z,6.00
2019-03-17T05:01:07.076Z,5.90
2019-03-17T05:03:35.927Z,5.80
2019-03-17T05:06:04.790Z,5.70
2019-03-17T05:08:33.690Z,5.70
2019-03-17T05:11:02.546Z,5.80
2019-03-17T05:13:31.919Z,5.80
2019-03-17T05:16:00.802Z,5.90
2019-03-17T05:18:29.683Z,6.10
2019-03-17T05:20:58.809Z,6.30
2019-03-17T05:23:27.740Z,6.50
2019-03-17T05:25:56.539Z,6.50
2019-03-17T05:28:25.376Z,6.60
2019-03-17T05:30:54.201Z,6.60
2019-03-17T05:33:23.007Z,6.80
2019-03-17T05:35:51.795Z,6.90
2019-03-17T05:38:20.599Z,7.00
2019-03-17T05:40:49.460Z,7.10
2019-03-17T05:43:18.308Z,7.20
2019-03-17T05:45:47.080Z,7.20
2019-03-17T05:48:15.892Z,7.30
2019-03-17T05:50:45.738Z,7.40
2019-03-17T05:53:14.790Z,7.40
2019-03-17T05:55:43.918Z,7.50
2019-03-17T05:58:12.809Z,7.50
2019-03-17T06:00:41.602Z,7.60
2019-03-17T06:03:10.454Z,7.60
2019-03-17T06:05:39.401Z,7.70
2019-03-17T06:08:08.189Z,7.70
2019-03-17T06:10:37.080Z,7.80
2019-03-17T06:13:05.936Z,7.80
2019-03-17T06:15:34.890Z,7.90
2019-03-17T06:18:03.702Z,8.00
2019-03-17T06:20:32.542Z,8.00
2019-03-17T06:23:01.582Z,8.10
2019-03-17T06:25:30.473Z,8.10
2019-03-17T06:27:59.311Z,8.00
2019-03-17T06:30:28.118Z,8.00
2019-03-17T06:32:56.892Z,8.00
2019-03-17T06:35:26.175Z,8.00
2019-03-17T06:37:55.138Z,8.00
2019-03-17T06:40:24.184Z,8.00
2019-03-17T06:42:53.098Z,8.10
2019-03-17T06:45:22.264Z,8.10
2019-03-17T06:47:51.132Z,8.20
2019-03-17T06:50:20.028Z,8.20
2019-03-17T06:52:50.106Z,8.30
2019-03-17T06:55:18.954Z,8.30
2019-03-17T06:57:47.730Z,8.30
2019-03-17T07:00:16.878Z,8.30
2019-03-17T07:02:45.858Z,8.30
2019-03-17T07:05:14.723Z,8.30
2019-03-17T07:07:44.823Z,8.40
2019-03-17T07:10:13.973Z,8.40
2019-03-17T07:12:43.008Z,8.40
2019-03-17T07:15:11.954Z,8.40
2019-03-17T07:17:41.057Z,8.40
2019-03-17T07:20:10.467Z,8.40
2019-03-17T07:22:39.508Z,8.40
2019-03-17T07:25:08.406Z,8.30
2019-03-17T07:27:37.257Z,8.30
2019-03-17T07:30:10.259Z,8.20
2019-03-17T07:32:45.893Z,8.20
2019-03-17T07:35:14.749Z,8.20
2019-03-17T07:37:55.864Z,8.20
2019-03-17T07:40:14.467Z,8.20
2019-03-17T07:42:43.249Z,8.20
2019-03-17T07:45:12.202Z,8.20
2019-03-17T07:47:40.996Z,8.20
2019-03-17T07:50:10.399Z,8.10
2019-03-17T07:52:39.398Z,8.10
2019-03-17T07:55:09.250Z,8.10
2019-03-17T07:57:38.063Z,8.20
2019-03-17T08:00:07.710Z,8.20
2019-03-17T08:02:36.498Z,8.20
2019-03-17T08:05:06.296Z,8.20
2019-03-17T08:07:35.158Z,8.20
2019-03-17T08:10:04.303Z,8.20
2019-03-17T08:12:33.098Z,8.20
2019-03-17T08:15:01.885Z,8.30
2019-03-17T08:17:31.018Z,8.30
2019-03-17T08:20:00.346Z,8.30
2019-03-17T08:22:29.177Z,8.30
2019-03-17T08:24:57.954Z,8.30
2019-03-17T08:27:26.749Z,8.30
2019-03-17T08:29:55.529Z,8.40
2019-03-17T08:32:24.321Z,8.30
2019-03-17T08:34:53.094Z,8.40
2019-03-17T08:37:21.893Z,8.40
2019-03-17T08:39:50.765Z,8.40
2019-03-17T08:42:19.623Z,8.30
2019-03-17T08:44:48.433Z,8.30
2019-03-17T08:47:17.221Z,8.30
2019-03-17T08:49:46.004Z,8.30
2019-03-17T08:52:14.964Z,8.40
2019-03-17T08:54:43.731Z,8.40
2019-03-17T08:57:12.518Z,8.40
2019-03-17T08:59:41.294Z,8.30
2019-03-17T09:02:10.350Z,8.30
2019-03-17T09:04:39.130Z,8.30
2019-03-17T09:07:07.936Z,8.10
2019-03-17T09:09:36.718Z,7.90
2019-03-17T09:12:05.663Z,7.50
2019-03-17T09:14:34.438Z,7.30
2019-03-17T09:17:13.810Z,7.10
2019-03-17T09:19:33.838Z,7.10
2019-03-17T09:22:02.634Z,7.10
2019-03-17T09:24:31.597Z,7.00
2019-03-17T09:27:00.417Z,6.90
2019-03-17T09:29:29.589Z,7.00
2019-03-17T09:31:58.437Z,7.00
2019-03-17T09:34:27.290Z,7.10
2019-03-17T09:36:56.150Z,7.00
2019-03-17T09:39:24.938Z,7.10
2019-03-17T09:41:53.722Z,7.10
2019-03-17T09:44:22.528Z,7.10
2019-03-17T09:46:51.317Z,7.20
2019-03-17T09:49:20.110Z,7.30
2019-03-17T09:51:48.894Z,7.40
2019-03-17T09:54:17.686Z,7.50
2019-03-17T09:56:46.471Z,7.50
2019-03-17T09:59:15.263Z,7.60
2019-03-17T10:01:44.111Z,7.80
2019-03-17T10:06:41.330Z,7.90
2019-03-17T10:09:10.198Z,8.00
2019-03-17T10:11:38.973Z,8.10
2019-03-17T10:14:07.762Z,8.00
2019-03-17T10:16:36.567Z,8.20
2019-03-17T10:19:05.514Z,8.20
2019-03-17T10:21:34.321Z,8.20
2019-03-17T10:24:03.618Z,8.40
2019-03-17T10:26:32.775Z,8.50
2019-03-17T10:29:01.627Z,8.60
2019-03-17T10:31:30.435Z,8.50
2019-03-17T10:33:59.258Z,8.40
2019-03-17T10:36:28.034Z,8.50
2019-03-17T10:38:57.149Z,8.60
2019-03-17T10:41:26.086Z,8.80
2019-03-17T10:43:54.950Z,8.90
2019-03-17T10:46:23.947Z,8.90
2019-03-17T10:48:52.714Z,8.90
2019-03-17T10:51:21.605Z,8.90
2019-03-17T10:53:50.507Z,9.10
2019-03-17T10:56:19.464Z,9.00
2019-03-17T10:58:48.591Z,9.00
2019-03-17T11:01:17.373Z,9.10
2019-03-17T11:03:46.465Z,9.30
2019-03-17T11:06:15.247Z,9.50
2019-03-17T11:08:44.037Z,9.70
2019-03-17T11:11:12.917Z,9.70
2019-03-17T11:13:41.684Z,9.60
2019-03-17T11:16:10.538Z,9.50
2019-03-17T11:18:39.710Z,9.40
2019-03-17T11:21:08.490Z,9.50
2019-03-17T11:23:37.389Z,9.50
2019-03-17T11:26:06.248Z,9.30
2019-03-17T11:28:35.018Z,9.10
2019-03-17T11:31:03.877Z,9.10
2019-03-17T11:33:32.657Z,9.10
2019-03-17T11:36:01.582Z,9.10
2019-03-17T11:38:30.464Z,9.20
2019-03-17T11:40:59.302Z,9.00
2019-03-17T11:43:28.142Z,8.90
2019-03-17T11:45:57.070Z,8.60
2019-03-17T11:48:25.946Z,8.70
2019-03-17T11:50:54.791Z,8.80
2019-03-17T11:53:23.803Z,8.80
2019-03-17T11:55:53.676Z,8.70
2019-03-17T11:58:22.449Z,8.90
2019-03-17T12:00:51.406Z,8.90
2019-03-17T12:03:20.262Z,8.90
2019-03-17T12:05:49.205Z,8.90
2019-03-17T12:08:17.994Z,9.00
2019-03-17T12:10:47.042Z,9.20
2019-03-17T12:13:16.213Z,9.40
2019-03-17T12:15:45.434Z,9.60
2019-03-17T12:18:14.222Z,9.80
2019-03-17T12:20:43.514Z,9.90
2019-03-17T12:25:44.812Z,10.10
2019-03-17T12:28:14.082Z,10.00
2019-03-17T12:30:43.007Z,10.10
2019-03-17T12:33:12.280Z,10.80
2019-03-17T12:35:41.138Z,11.20
2019-03-17T12:38:09.946Z,11.00
2019-03-17T12:40:38.824Z,10.90
2019-03-17T12:43:07.622Z,10.70
2019-03-17T12:45:36.410Z,10.50
2019-03-17T12:48:05.391Z,10.90
2019-03-17T12:50:34.497Z,11.60
2019-03-17T12:53:03.293Z,11.70
2019-03-17T12:55:32.146Z,11.80
2019-03-17T12:58:00.934Z,11.60
2019-03-17T13:00:29.780Z,11.60
2019-03-17T13:02:58.661Z,11.50
2019-03-17T13:05:27.430Z,11.00
2019-03-17T13:07:56.372Z,10.80
2019-03-17T13:10:25.342Z,10.60
2019-03-17T13:12:54.325Z,10.30
2019-03-17T13:15:23.151Z,10.20
2019-03-17T13:17:51.926Z,10.50
2019-03-17T13:20:20.881Z,12.00
2019-03-17T13:22:49.671Z,12.50
2019-03-17T13:25:18.596Z,12.70
2019-03-17T13:27:47.388Z,12.40
2019-03-17T13:30:16.334Z,11.70
2019-03-17T13:32:45.278Z,11.30
2019-03-17T13:35:14.299Z,10.90
2019-03-17T13:37:43.256Z,10.60
2019-03-17T13:40:12.614Z,11.00
2019-03-17T13:42:41.552Z,11.60
2019-03-17T13:45:10.902Z,12.20
2019-03-17T13:47:39.878Z,12.30
2019-03-17T13:50:10.769Z,12.30
2019-03-17T13:52:39.755Z,12.30
2019-03-17T13:55:08.626Z,12.00
2019-03-17T13:57:37.705Z,11.70
2019-03-17T14:00:08.620Z,11.40
2019-03-17T14:02:37.437Z,11.30
2019-03-17T14:05:06.258Z,11.20
2019-03-17T14:07:35.114Z,10.90
2019-03-17T14:10:13.821Z,11.00
2019-03-17T14:12:35.229Z,11.00
2019-03-17T14:15:04.353Z,11.00
2019-03-17T14:17:33.143Z,10.70
2019-03-17T14:20:01.970Z,10.70
2019-03-17T14:22:30.759Z,10.50
2019-03-17T14:24:59.831Z,10.30
2019-03-17T14:27:28.602Z,9.90
2019-03-17T14:29:57.498Z,9.90
2019-03-17T14:32:26.271Z,10.00
2019-03-17T14:34:56.163Z,9.90
2019-03-17T14:37:24.930Z,9.80
2019-03-17T14:39:53.763Z,9.60
2019-03-17T14:42:22.548Z,9.70
2019-03-17T14:44:51.347Z,9.50
2019-03-17T14:47:20.124Z,9.40
2019-03-17T14:49:48.920Z,9.10
2019-03-17T14:52:17.966Z,8.80
2019-03-17T14:54:46.760Z,8.70
2019-03-17T14:57:15.578Z,8.70
2019-03-17T14:59:44.378Z,8.80
2019-03-17T15:02:13.252Z,8.70
2019-03-17T15:04:42.047Z,8.60
2019-03-17T15:07:10.834Z,8.50
2019-03-17T15:09:39.627Z,8.30
2019-03-17T15:12:08.410Z,8.70
2019-03-17T15:14:37.213Z,9.00
2019-03-17T15:17:06.063Z,9.00
2019-03-17T15:19:34.859Z,9.00
2019-03-17T15:22:04.441Z,8.90
2019-03-17T15:24:33.243Z,8.80
2019-03-17T15:27:02.112Z,8.50
2019-03-17T15:29:31.386Z,8.40
2019-03-17T15:32:00.456Z,8.40
2019-03-17T15:34:29.267Z,8.40
2019-03-17T15:36:58.151Z,8.30
2019-03-17T15:39:27.191Z,8.20
2019-03-17T15:41:55.978Z,8.00
2019-03-17T15:44:24.742Z,8.00
2019-03-17T15:46:53.526Z,8.00
2019-03-17T15:49:22.368Z,8.10
2019-03-17T15:51:51.223Z,7.80
2019-03-17T15:54:21.549Z,7.80
2019-03-17T15:56:50.551Z,7.70
2019-03-17T15:59:19.343Z,7.70
2019-03-17T16:01:48.126Z,7.70
2019-03-17T16:04:19.610Z,7.70
2019-03-17T16:06:47.760Z,7.70
2019-03-17T16:09:17.162Z,7.70
2019-03-17T16:11:46.095Z,7.60
2019-03-17T16:14:14.857Z,7.60
2019-03-17T16:16:43.641Z,7.80
2019-03-17T16:19:12.435Z,7.60
2019-03-17T16:21:41.225Z,7.60
2019-03-17T16:24:10.062Z,7.50
2019-03-17T16:26:40.751Z,7.20
2019-03-17T16:29:09.737Z,6.80
2019-03-17T16:31:38.663Z,6.60
2019-03-17T16:34:07.644Z,6.10
2019-03-17T16:36:36.564Z,5.80
2019-03-17T16:39:07.656Z,5.70
2019-03-17T16:41:43.537Z,5.50
2019-03-17T16:44:07.460Z,5.40
2019-03-17T16:46:36.300Z,5.30
2019-03-17T16:49:05.299Z,5.30
2019-03-17T16:51:34.302Z,5.20
2019-03-17T16:54:03.127Z,5.10
2019-03-17T16:56:32.111Z,4.90
2019-03-17T16:59:00.940Z,4.90
2019-03-17T17:01:30.118Z,4.80
2019-03-17T17:03:59.066Z,4.80
2019-03-17T17:06:27.961Z,4.80
2019-03-17T17:08:56.793Z,4.70
2019-03-17T17:11:25.908Z,4.60
2019-03-17T17:13:54.752Z,4.60
2019-03-17T17:16:24.032Z,4.50
2019-03-17T17:18:53.039Z,4.50
2019-03-17T17:21:21.986Z,4.50
2019-03-17T17:23:50.849Z,4.50
2019-03-17T17:26:19.837Z,4.40
2019-03-17T17:28:48.756Z,4.40
2019-03-17T17:31:17.913Z,4.40
2019-03-17T17:33:46.759Z,4.40
2019-03-17T17:36:15.656Z,4.50
2019-03-17T17:38:44.772Z,4.50
2019-03-17T17:41:13.672Z,4.50
2019-03-17T17:43:42.670Z,4.40
2019-03-17T17:46:11.497Z,4.40
2019-03-17T17:48:40.361Z,4.40
2019-03-17T17:51:09.199Z,4.40
2019-03-17T17:53:38.129Z,4.50
2019-03-17T17:56:07.360Z,4.50
2019-03-17T17:58:36.277Z,4.60
2019-03-17T18:01:05.329Z,4.60
2019-03-17T18:03:34.248Z,4.60
2019-03-17T18:06:03.342Z,4.60
2019-03-17T18:08:32.690Z,4.50
2019-03-17T18:11:01.480Z,4.40
2019-03-17T18:13:30.584Z,4.30
2019-03-17T18:15:59.741Z,4.20
2019-03-17T18:18:28.685Z,4.10
2019-03-17T18:20:57.524Z,4.10
2019-03-17T18:23:26.453Z,4.00
2019-03-17T18:25:55.377Z,3.90
2019-03-17T18:28:24.230Z,3.90
2019-03-17T18:30:53.124Z,3.70
2019-03-17T18:33:22.045Z,3.60
2019-03-17T18:35:50.901Z,3.60
2019-03-17T18:38:19.772Z,3.50
2019-03-17T18:40:49.012Z,3.50
2019-03-17T18:43:17.864Z,3.50
2019-03-17T18:45:46.705Z,3.50
2019-03-17T18:48:15.611Z,3.60
2019-03-17T18:50:44.560Z,3.70
2019-03-17T18:53:13.408Z,3.80
2019-03-17T18:55:42.663Z,3.80
2019-03-17T18:58:11.779Z,3.80
2019-03-17T19:00:40.703Z,3.80
2019-03-17T19:03:09.608Z,3.80
2019-03-17T19:05:38.531Z,3.80
2019-03-17T19:08:07.431Z,3.70
2019-03-17T19:10:36.264Z,3.70
2019-03-17T19:13:05.453Z,3.80
2019-03-17T19:15:34.301Z,3.80
2019-03-17T19:18:03.198Z,3.90
2019-03-17T19:20:32.040Z,4.00
2019-03-17T19:23:00.944Z,4.00
2019-03-17T19:25:29.862Z,4.00
2019-03-17T19:27:58.960Z,4.00
2019-03-17T19:30:27.969Z,4.10
2019-03-17T19:32:56.944Z,4.10
2019-03-17T19:35:25.882Z,4.10
2019-03-17T19:37:54.776Z,4.20
2019-03-17T19:40:23.770Z,4.20
2019-03-17T19:42:59.069Z,4.10
2019-03-17T19:45:23.352Z,4.10
2019-03-17T19:47:53.484Z,4.00
2019-03-17T19:50:22.409Z,4.00
2019-03-17T19:52:51.381Z,4.00
2019-03-17T19:55:20.335Z,4.00
2019-03-17T19:57:49.445Z,3.90
2019-03-17T20:00:18.369Z,3.90
2019-03-17T20:02:47.964Z,3.90
2019-03-17T20:05:17.056Z,3.80
2019-03-17T20:07:46.021Z,3.80
2019-03-17T20:10:17.908Z,3.80
2019-03-17T20:12:46.820Z,3.80
2019-03-17T20:15:15.762Z,3.80
2019-03-17T20:17:44.893Z,3.70
2019-03-17T20:20:13.904Z,3.70
2019-03-17T20:22:42.881Z,3.70
2019-03-17T20:25:11.786Z,3.60
2019-03-17T20:27:40.960Z,3.60
2019-03-17T20:30:11.059Z,3.60
2019-03-17T20:32:40.041Z,3.50
2019-03-17T20:35:09.888Z,3.40
2019-03-17T20:37:39.156Z,3.40
2019-03-17T20:40:09.273Z,3.40
2019-03-17T20:42:38.292Z,3.30
2019-03-17T20:45:07.820Z,3.40
2019-03-17T20:47:36.678Z,3.40
2019-03-17T20:50:06.464Z,3.40
2019-03-17T20:52:35.393Z,3.40
2019-03-17T20:55:04.730Z,3.40
2019-03-17T20:57:33.921Z,3.40
2019-03-17T21:00:02.918Z,3.30
2019-03-17T21:02:31.769Z,3.30
2019-03-17T21:05:00.677Z,3.20
2019-03-17T21:07:29.548Z,3.20
2019-03-17T21:09:58.369Z,3.20
2019-03-17T21:12:27.282Z,3.30
2019-03-17T21:14:56.221Z,3.30
2019-03-17T21:17:25.053Z,3.30
2019-03-17T21:19:53.886Z,3.30
2019-03-17T21:22:22.815Z,3.30
2019-03-17T21:24:52.037Z,3.30
2019-03-17T21:27:20.968Z,3.20
2019-03-17T21:29:50.324Z,3.20
2019-03-17T21:32:19.256Z,3.10
2019-03-17T21:34:48.089Z,3.00
2019-03-17T21:37:16.939Z,3.00
2019-03-17T21:39:45.800Z,2.80
2019-03-17T21:42:14.748Z,2.70
2019-03-17T21:44:43.601Z,2.60
2019-03-17T21:47:12.580Z,2.70
2019-03-17T21:49:41.413Z,2.70
2019-03-17T21:52:10.328Z,2.70
2019-03-17T21:54:39.160Z,2.70
2019-03-17T21:57:08.018Z,2.60
2019-03-17T21:59:36.845Z,2.50
2019-03-17T22:02:12.809Z,2.50
2019-03-17T22:04:36.705Z,2.30
2019-03-17T22:07:05.786Z,2.20
2019-03-17T22:09:34.764Z,2.00
2019-03-17T22:12:03.681Z,1.90
2019-03-17T22:14:32.617Z,1.70
2019-03-17T22:17:01.658Z,1.60
2019-03-17T22:19:31.212Z,1.60
2019-03-17T22:22:00.128Z,1.50
2019-03-17T22:24:29.068Z,1.40
2019-03-17T22:26:58.150Z,1.40
2019-03-17T22:29:27.010Z,1.30
2019-03-17T22:31:55.779Z,1.30
2019-03-17T22:34:24.658Z,1.20
2019-03-17T22:36:53.524Z,1.20
2019-03-17T22:39:22.322Z,1.10
2019-03-17T22:41:51.079Z,1.10
2019-03-17T22:44:24.608Z,1.00
2019-03-17T22:46:50.549Z,1.00
2019-03-17T22:49:19.325Z,1.00
2019-03-17T22:51:48.429Z,1.10
2019-03-17T22:54:17.216Z,1.30
2019-03-17T22:56:46.020Z,1.50
2019-03-17T22:59:14.797Z,1.70
2019-03-17T23:01:43.725Z,1.80
2019-03-17T23:04:12.541Z,2.00
2019-03-17T23:06:41.318Z,2.10
2019-03-17T23:09:10.101Z,2.20
2019-03-17T23:11:39.139Z,1.90
2019-03-17T23:14:07.962Z,1.60
2019-03-17T23:16:36.810Z,1.70
2019-03-17T23:19:05.595Z,1.80
2019-03-17T23:21:34.441Z,1.90
2019-03-17T23:24:03.678Z,2.00
2019-03-17T23:26:32.779Z,2.10
2019-03-17T23:29:01.563Z,2.20
2019-03-17T23:31:30.342Z,2.20
2019-03-17T23:33:59.118Z,2.30
2019-03-17T23:36:27.889Z,2.40
2019-03-17T23:38:56.674Z,2.40
2019-03-17T23:41:25.455Z,2.40
2019-03-17T23:43:54.622Z,2.40
2019-03-17T23:46:23.435Z,2.30
2019-03-17T23:48:52.325Z,2.40
2019-03-17T23:51:21.094Z,2.40
2019-03-17T23:53:49.882Z,2.50
2019-03-17T23:56:18.726Z,2.50
2019-03-17T23:58:47.598Z,2.50
